Time;durP1;ratioP1;P1;durP2;ratioP2;P2;SDS_P1;SDS_P2;PMS_P1;PMS_P2;Temp;Humidity;BMP_temperature;BMP_pressure;BME280_temperature;BME280_humidity;BME280_pressure;Samples;Min_cycle;Max_cycle;Signal;HPM_P1;HPM_P2
2023/04/22 00:02:23;;;;;;;6.97;5.28;;;;;;;-146.18;100.00;67994.34;10064988;28;20430;-74
2023/04/22 00:07:20;;;;;;;6.55;5.03;;;;;;;-146.18;100.00;67994.34;10067483;28;20057;-74
2023/04/22 00:12:16;;;;;;;9.23;5.22;;;;;;;-146.18;100.00;67994.34;10066248;28;20063;-75
2023/04/22 00:17:13;;;;;;;8.13;5.18;;;;;;;-146.18;100.00;67994.34;10067890;28;20134;-74
2023/04/22 00:22:10;;;;;;;7.97;5.32;;;;;;;-146.18;100.00;67994.34;10066475;28;20046;-74
2023/04/22 00:27:06;;;;;;;6.45;5.20;;;;;;;-146.18;100.00;67994.34;10066825;28;20082;-76
2023/04/22 00:32:03;;;;;;;8.88;5.22;;;;;;;-146.18;100.00;67994.34;10053564;28;20086;-76
2023/04/22 00:37:00;;;;;;;7.85;5.18;;;;;;;-146.18;100.00;67994.34;10065888;28;20118;-76
2023/04/22 00:41:57;;;;;;;10.10;5.97;;;;;;;-146.18;100.00;67994.34;10061124;28;20406;-75
2023/04/22 00:46:54;;;;;;;7.03;4.97;;;;;;;-146.18;100.00;67994.34;10061032;28;20138;-76
2023/04/22 00:51:50;;;;;;;7.15;5.45;;;;;;;-146.18;100.00;67994.34;10068652;28;20098;-76
2023/04/22 00:56:47;;;;;;;8.30;5.35;;;;;;;-146.18;100.00;67994.34;10062833;28;20047;-76
2023/04/22 01:01:44;;;;;;;7.35;5.25;;;;;;;-146.18;100.00;67994.34;10063622;28;20628;-76
2023/04/22 01:06:42;;;;;;;9.75;5.38;;;;;;;-146.18;100.00;67994.34;10060670;28;20510;-76
2023/04/22 01:11:39;;;;;;;9.35;6.30;;;;;;;-146.18;100.00;67994.34;10065935;28;20114;-76
2023/04/22 01:16:37;;;;;;;5.80;5.07;;;;;;;-146.18;100.00;67994.34;10052121;28;20055;-76
2023/04/22 01:21:34;;;;;;;11.30;5.50;;;;;;;-146.18;100.00;67994.34;10055796;28;20044;-76
2023/04/22 01:26:31;;;;;;;6.90;5.85;;;;;;;-146.18;100.00;67994.34;10058258;28;20059;-76
2023/04/22 01:31:28;;;;;;;6.75;5.40;;;;;;;-146.18;100.00;67994.34;10066272;28;20146;-76
2023/04/22 01:36:25;;;;;;;8.43;4.97;;;;;;;-146.18;100.00;67994.34;10059288;28;20461;-76
2023/04/22 01:41:21;;;;;;;6.72;5.35;;;;;;;-146.18;100.00;67994.34;10057862;28;20667;-76
2023/04/22 01:46:18;;;;;;;6.75;5.57;;;;;;;-146.18;100.00;67994.34;10060555;28;20514;-76
2023/04/22 01:51:22;;;;;;;8.88;5.75;;;;;;;-146.18;100.00;67994.34;10062972;28;20075;-76
2023/04/22 01:56:19;;;;;;;9.43;5.78;;;;;;;-146.18;100.00;67994.34;10062821;28;20054;-76
2023/04/22 02:01:15;;;;;;;8.90;6.13;;;;;;;-146.18;100.00;67994.34;10043266;28;20039;-75
2023/04/22 02:06:11;;;;;;;7.00;5.68;;;;;;;-146.18;100.00;67994.34;10049043;28;20466;-75
2023/04/22 02:11:08;;;;;;;7.18;6.20;;;;;;;-146.18;100.00;67994.34;10060425;28;20466;-76
2023/04/22 02:16:06;;;;;;;7.32;5.50;;;;;;;-146.18;100.00;67994.34;10063830;28;20067;-76
2023/04/22 02:21:02;;;;;;;8.73;5.60;;;;;;;-146.18;100.00;67994.34;10054690;28;20052;-76
2023/04/22 02:25:59;;;;;;;9.13;5.75;;;;;;;-146.18;100.00;67994.34;10063039;28;20484;-74
2023/04/22 02:30:56;;;;;;;9.38;5.93;;;;;;;-146.18;100.00;67994.34;10060020;28;20118;-76
2023/04/22 02:35:52;;;;;;;13.07;6.35;;;;;;;-146.18;100.00;67994.34;10059411;28;20071;-74
2023/04/22 02:40:49;;;;;;;8.77;5.85;;;;;;;-146.18;100.00;67994.34;10063015;28;20420;-76
2023/04/22 02:45:45;;;;;;;8.63;7.20;;;;;;;-146.18;100.00;67994.34;10062365;28;20063;-74
2023/04/22 02:50:42;;;;;;;7.40;6.15;;;;;;;-146.18;100.00;67994.34;10055662;28;20051;-74
2023/04/22 02:55:40;;;;;;;8.95;7.00;;;;;;;-146.18;100.00;67994.34;10054335;28;20079;-74
2023/04/22 03:00:36;;;;;;;8.55;5.93;;;;;;;-146.18;100.00;67994.34;10046445;28;20043;-74
2023/04/22 03:05:33;;;;;;;9.35;6.45;;;;;;;-146.18;100.00;67994.34;10060586;28;20649;-74
2023/04/22 03:10:29;;;;;;;11.02;7.05;;;;;;;-146.18;100.00;67994.34;10063057;28;20083;-74
2023/04/22 03:15:25;;;;;;;8.00;6.25;;;;;;;-146.18;100.00;67994.34;10065152;28;20067;-75
2023/04/22 03:20:22;;;;;;;10.70;6.65;;;;;;;-146.18;100.00;67994.34;10062014;28;20055;-74
2023/04/22 03:25:18;;;;;;;7.32;6.00;;;;;;;-146.18;100.00;67994.34;10052915;28;20139;-74
2023/04/22 03:30:15;;;;;;;12.88;7.38;;;;;;;-146.18;100.00;67994.34;10061448;28;20083;-74
2023/04/22 03:35:12;;;;;;;11.32;7.22;;;;;;;-146.18;100.00;67994.34;10055654;28;20574;-74
2023/04/22 03:40:09;;;;;;;9.90;6.97;;;;;;;-146.18;100.00;67994.34;10062004;28;20516;-76
2023/04/22 03:45:06;;;;;;;11.52;7.53;;;;;;;-146.18;100.00;67994.34;10065856;28;20078;-73
2023/04/22 03:50:02;;;;;;;7.97;7.18;;;;;;;-146.18;100.00;67994.34;10079898;28;20055;-73
2023/04/22 03:54:59;;;;;;;8.30;6.95;;;;;;;-146.18;100.00;67994.34;10055691;28;20066;-74
2023/04/22 03:59:55;;;;;;;11.38;6.72;;;;;;;-146.18;100.00;67994.34;10059625;28;20050;-74
2023/04/22 04:04:52;;;;;;;9.30;7.50;;;;;;;-146.18;100.00;67994.34;10062532;28;20562;-74
2023/04/22 04:09:49;;;;;;;8.73;7.50;;;;;;;-146.18;100.00;67994.34;10065021;28;20119;-74
2023/04/22 04:14:46;;;;;;;9.68;7.38;;;;;;;-146.18;100.00;67994.34;10064988;28;20118;-73
2023/04/22 04:19:42;;;;;;;9.80;7.20;;;;;;;-146.18;100.00;67994.34;10017552;28;20562;-74
2023/04/22 04:24:40;;;;;;;11.02;8.30;;;;;;;-146.18;100.00;67994.34;10021811;28;20426;-74
2023/04/22 04:29:38;;;;;;;14.55;8.18;;;;;;;-146.18;100.00;67994.34;10045913;29;20131;-74
2023/04/22 04:34:36;;;;;;;10.18;7.95;;;;;;;-146.18;100.00;67994.34;10066501;28;20090;-74
2023/04/22 04:39:32;;;;;;;14.98;9.77;;;;;;;-146.18;100.00;67994.34;10059636;28;20043;-74
2023/04/22 04:44:30;;;;;;;10.73;8.10;;;;;;;-146.18;100.00;67994.34;10066769;28;20066;-74
2023/04/22 04:49:29;;;;;;;8.32;7.43;;;;;;;-146.18;100.00;67994.34;10056627;28;20540;-74
2023/04/22 04:54:26;;;;;;;11.13;7.90;;;;;;;-146.18;100.00;67994.34;10067806;28;20054;-74
2023/04/22 04:59:22;;;;;;;9.10;7.75;;;;;;;-146.18;100.00;67994.34;10070256;28;20509;-74
2023/04/22 05:04:18;;;;;;;8.60;7.70;;;;;;;-146.18;100.00;67994.34;10050264;28;20142;-74
2023/04/22 05:09:15;;;;;;;11.60;7.63;;;;;;;-146.18;100.00;67994.34;10055830;28;20051;-74
2023/04/22 05:14:12;;;;;;;9.63;8.63;;;;;;;-146.18;100.00;67994.34;10055434;28;20522;-75
2023/04/22 05:19:08;;;;;;;13.52;8.18;;;;;;;-146.18;100.00;67994.34;10063534;28;20043;-76
2023/04/22 05:24:05;;;;;;;9.88;7.97;;;;;;;-146.18;100.00;67994.34;10065361;28;20078;-76
2023/04/22 05:29:01;;;;;;;10.80;7.70;;;;;;;-146.18;100.00;67994.34;10060898;28;20510;-77
2023/04/22 05:33:58;;;;;;;11.15;8.38;;;;;;;-146.18;100.00;67994.34;10047201;28;20155;-76
2023/04/22 05:38:54;;;;;;;14.27;8.75;;;;;;;-146.18;100.00;67994.34;10065364;28;20044;-76
2023/04/22 05:43:51;;;;;;;11.45;7.78;;;;;;;-146.18;100.00;67994.34;10059111;28;20135;-76
2023/04/22 05:48:48;;;;;;;9.68;7.88;;;;;;;-146.18;100.00;67994.34;10065858;28;20131;-76
2023/04/22 05:53:44;;;;;;;11.57;8.30;;;;;;;-146.18;100.00;67994.34;10062264;28;20549;-76
2023/04/22 05:58:41;;;;;;;12.13;8.70;;;;;;;-146.18;100.00;67994.34;10064314;28;20082;-76
2023/04/22 06:03:38;;;;;;;9.73;8.80;;;;;;;-146.18;100.00;67994.34;10051836;28;20102;-76
2023/04/22 06:08:35;;;;;;;10.10;9.07;;;;;;;-146.18;100.00;67994.34;10046443;28;20043;-76
2023/04/22 06:13:31;;;;;;;12.25;8.70;;;;;;;-146.18;100.00;67994.34;10043756;28;20074;-75
2023/04/22 06:18:28;;;;;;;10.27;8.70;;;;;;;-146.18;100.00;67994.34;10063323;28;20616;-75
2023/04/22 06:23:24;;;;;;;11.45;8.32;;;;;;;-146.18;100.00;67994.34;10067604;28;20055;-76
2023/04/22 06:28:21;;;;;;;10.50;8.60;;;;;;;-146.18;100.00;67994.34;10061465;28;20075;-76
2023/04/22 06:33:17;;;;;;;10.50;9.05;;;;;;;-146.18;100.00;67994.34;10056126;28;20043;-76
2023/04/22 06:38:14;;;;;;;9.88;8.32;;;;;;;-146.18;100.00;67994.34;10051901;28;20519;-75
2023/04/22 06:43:10;;;;;;;17.50;9.43;;;;;;;-146.18;100.00;67994.34;10059910;28;20051;-76
2023/04/22 06:48:07;;;;;;;10.38;9.15;;;;;;;-146.18;100.00;67994.34;10059178;28;20134;-75
2023/04/22 06:53:03;;;;;;;13.48;9.15;;;;;;;-146.18;100.00;67994.34;10046980;28;20055;-75
2023/04/22 06:58:00;;;;;;;13.07;9.90;;;;;;;-146.18;100.00;67994.34;10054178;28;20493;-75
2023/04/22 07:02:56;;;;;;;11.35;9.07;;;;;;;-146.18;100.00;67994.34;10060824;28;20055;-74
2023/04/22 07:07:53;;;;;;;10.88;8.98;;;;;;;-146.18;100.00;67994.34;10040549;28;20059;-74
2023/04/22 07:12:49;;;;;;;10.70;8.82;;;;;;;-146.18;100.00;67994.34;10056022;28;20048;-74
2023/04/22 07:17:46;;;;;;;10.90;8.52;;;;;;;-146.18;100.00;67994.34;10064595;28;20050;-75
2023/04/22 07:22:42;;;;;;;10.20;9.10;;;;;;;-146.18;100.00;67994.34;10064144;28;20061;-74
2023/04/22 07:27:39;;;;;;;10.55;8.82;;;;;;;-146.18;100.00;67994.34;10065697;28;20070;-75
2023/04/22 07:32:35;;;;;;;13.63;9.15;;;;;;;-146.18;100.00;67994.34;10067835;28;20043;-74
2023/04/22 07:37:32;;;;;;;11.85;9.63;;;;;;;-146.18;100.00;67994.34;10062382;28;20075;-75
2023/04/22 07:42:28;;;;;;;11.35;8.68;;;;;;;-146.18;100.00;67994.34;10065819;28;20094;-75
2023/04/22 07:47:24;;;;;;;11.93;8.77;;;;;;;-146.18;100.00;67994.34;10065391;28;20766;-74
2023/04/22 07:52:21;;;;;;;10.57;8.68;;;;;;;-146.18;100.00;67994.34;10065369;28;20051;-74
2023/04/22 07:57:21;;;;;;;12.88;8.65;;;;;;;-146.18;100.00;67994.34;10068265;28;20055;-74
2023/04/22 08:02:17;;;;;;;14.57;9.02;;;;;;;-146.18;100.00;67994.34;10068641;28;20772;-75
2023/04/22 08:07:14;;;;;;;10.18;9.07;;;;;;;-146.18;100.00;67994.34;10062228;28;20069;-75
2023/04/22 08:12:28;;;;;;;10.82;8.73;;;;;;;-146.18;100.00;67994.34;10065154;28;20489;-74
2023/04/22 08:17:25;;;;;;;11.18;8.95;;;;;;;-146.18;100.00;67994.34;10066032;28;20094;-74
2023/04/22 08:22:22;;;;;;;13.25;9.40;;;;;;;-146.18;100.00;67994.34;10064035;28;20051;-75
2023/04/22 08:27:20;;;;;;;11.15;8.73;;;;;;;-146.18;100.00;67994.34;10055218;28;20584;-74
2023/04/22 08:32:18;;;;;;;11.75;8.25;;;;;;;-146.18;100.00;67994.34;10064264;28;20051;-75
2023/04/22 08:37:15;;;;;;;13.55;8.88;;;;;;;-146.18;100.00;67994.34;10058195;28;20044;-74
2023/04/22 08:42:12;;;;;;;10.95;9.60;;;;;;;-146.18;100.00;67994.34;10065224;28;20047;-75
2023/04/22 08:47:10;;;;;;;10.90;9.07;;;;;;;-146.18;100.00;67994.34;10068352;28;20078;-74
2023/04/22 08:52:08;;;;;;;11.98;8.60;;;;;;;-146.18;100.00;67994.34;10056319;28;20573;-74
2023/04/22 08:57:06;;;;;;;11.95;9.07;;;;;;;-146.18;100.00;67994.34;10068051;28;20571;-75
2023/04/22 09:02:04;;;;;;;8.85;7.95;;;;;;;-146.18;100.00;67994.34;10055839;28;20054;-75
2023/04/22 09:07:01;;;;;;;12.38;9.20;;;;;;;-146.18;100.00;67994.34;10065091;28;20044;-75
2023/04/22 09:11:58;;;;;;;13.55;9.13;;;;;;;-146.18;100.00;67994.34;10064655;28;20083;-75
2023/04/22 09:16:57;;;;;;;10.55;9.55;;;;;;;-146.18;100.00;67994.34;10055631;28;20110;-75
2023/04/22 09:21:56;;;;;;;11.00;9.55;;;;;;;-146.18;100.00;67994.34;10059465;28;20514;-75
2023/04/22 09:26:55;;;;;;;11.10;8.82;;;;;;;-146.18;100.00;67994.34;10062802;28;20113;-75
2023/04/22 09:31:51;;;;;;;14.98;9.80;;;;;;;-146.18;100.00;67994.34;10060658;28;20066;-75
2023/04/22 09:36:50;;;;;;;13.52;8.80;;;;;;;-146.18;100.00;67994.34;10063165;28;20050;-75
2023/04/22 09:41:53;;;;;;;10.25;9.15;;;;;;;-146.18;100.00;67994.34;10059361;28;20055;-75
2023/04/22 09:46:50;;;;;;;9.77;8.77;;;;;;;-146.18;100.00;67994.34;10059120;28;20589;-75
2023/04/22 09:51:46;;;;;;;9.65;8.68;;;;;;;-146.18;100.00;67994.34;10060536;28;20047;-75
2023/04/22 09:56:52;;;;;;;9.23;8.40;;;;;;;-146.18;100.00;67994.34;10049914;28;20074;-75
2023/04/22 10:01:51;;;;;;;10.65;8.48;;;;;;;-146.18;100.00;67994.34;10063886;28;20051;-75
2023/04/22 10:06:48;;;;;;;10.15;9.15;;;;;;;-146.18;100.00;67994.34;10055215;28;20054;-75
2023/04/22 10:11:46;;;;;;;13.65;8.75;;;;;;;-146.18;100.00;67994.34;10057614;28;20055;-75
2023/04/22 10:16:45;;;;;;;10.13;9.20;;;;;;;-146.18;100.00;67994.34;10051304;28;20540;-75
2023/04/22 10:21:45;;;;;;;10.95;9.13;;;;;;;-146.18;100.00;67994.34;10054716;28;20113;-76
2023/04/22 10:26:47;;;;;;;9.73;8.93;;;;;;;-146.18;100.00;67994.34;10058526;28;20043;-76
2023/04/22 10:32:09;;;;;;;9.45;8.55;;;;;;;-146.18;100.00;67994.34;10061993;28;20067;-76
2023/04/22 10:37:09;;;;;;;9.73;8.32;;;;;;;-146.18;100.00;67994.34;10060695;28;20047;-75
2023/04/22 10:42:18;;;;;;;8.40;7.38;;;;;;;-146.18;100.00;67994.34;10058212;28;20133;-76
2023/04/22 10:47:27;;;;;;;9.10;8.20;;;;;;;-146.18;100.00;67994.34;10050198;28;20134;-75
2023/04/22 10:52:28;;;;;;;9.57;8.52;;;;;;;-146.18;100.00;67994.34;10065215;28;20039;-75
2023/04/22 10:57:36;;;;;;;8.88;8.00;;;;;;;-146.18;100.00;67994.34;10057391;28;20516;-75
2023/04/22 11:02:35;;;;;;;10.55;8.35;;;;;;;-146.18;100.00;67994.34;10073700;28;20082;-75
2023/04/22 11:07:34;;;;;;;8.52;7.72;;;;;;;-146.18;100.00;67994.34;10061967;28;20734;-75
2023/04/22 11:12:33;;;;;;;9.05;8.25;;;;;;;-146.18;100.00;67994.34;10066321;28;20043;-75
2023/04/22 11:17:30;;;;;;;8.70;7.90;;;;;;;-146.18;100.00;67994.34;10058163;28;20047;-75
2023/04/22 11:22:26;;;;;;;9.50;8.50;;;;;;;-146.18;100.00;67994.34;10074931;28;20117;-75
2023/04/22 11:27:29;;;;;;;9.10;8.20;;;;;;;-146.18;100.00;67994.34;10066958;28;20077;-75
2023/04/22 11:32:26;;;;;;;8.75;7.85;;;;;;;-146.18;100.00;67994.34;10065439;28;20051;-76
2023/04/22 11:37:23;;;;;;;8.20;7.40;;;;;;;-146.18;100.00;67994.34;10059161;28;20161;-75
2023/04/22 11:42:21;;;;;;;7.72;7.03;;;;;;;-146.18;100.00;67994.34;10065344;28;20711;-76
2023/04/22 11:47:18;;;;;;;7.85;7.05;;;;;;;-146.18;100.00;67994.34;10058967;28;20051;-75
2023/04/22 11:52:14;;;;;;;7.97;7.28;;;;;;;-146.18;100.00;67994.34;10064443;28;20055;-75
2023/04/22 11:57:14;;;;;;;8.18;7.47;;;;;;;-146.18;100.00;67994.34;10064975;28;20495;-75
2023/04/22 12:02:10;;;;;;;7.78;7.10;;;;;;;-146.18;100.00;67994.34;10062397;28;20118;-75
2023/04/22 12:07:07;;;;;;;8.50;7.13;;;;;;;-146.18;100.00;67994.34;10064568;28;20083;-75
2023/04/22 12:12:04;;;;;;;8.10;7.35;;;;;;;-146.18;100.00;67994.34;10064709;28;20114;-75
2023/04/22 12:17:04;;;;;;;7.85;7.15;;;;;;;-146.18;100.00;67994.34;10061820;28;20139;-75
2023/04/22 12:22:01;;;;;;;8.40;7.70;;;;;;;-146.18;100.00;67994.34;10065633;28;20050;-75
2023/04/22 12:26:57;;;;;;;8.18;7.00;;;;;;;-146.18;100.00;67994.34;10069906;28;20047;-75
2023/04/22 12:31:54;;;;;;;8.32;7.53;;;;;;;-146.18;100.00;67994.34;10062764;28;20088;-75
2023/04/22 12:36:50;;;;;;;8.68;7.97;;;;;;;-146.18;100.00;67994.34;10063291;28;20126;-75
2023/04/22 12:41:49;;;;;;;7.70;7.07;;;;;;;-146.18;100.00;67994.34;10065070;28;20043;-75
2023/04/22 12:46:46;;;;;;;9.82;7.40;;;;;;;-146.18;100.00;67994.34;10062765;28;20568;-74
2023/04/22 12:51:42;;;;;;;8.10;7.30;;;;;;;-146.18;100.00;67994.34;10062099;28;20043;-74
2023/04/22 12:56:39;;;;;;;8.55;7.80;;;;;;;-146.18;100.00;67994.34;10060997;28;20051;-75
2023/04/22 13:01:35;;;;;;;8.05;7.25;;;;;;;-146.18;100.00;67994.34;10064643;28;20047;-74
2023/04/22 13:06:33;;;;;;;8.18;7.47;;;;;;;-146.18;100.00;67994.34;10064701;28;20043;-75
2023/04/22 13:11:29;;;;;;;8.00;7.30;;;;;;;-146.18;100.00;67994.34;10053806;28;20671;-75
2023/04/22 13:16:26;;;;;;;8.75;7.65;;;;;;;-146.18;100.00;67994.34;10064452;28;20051;-75
2023/04/22 13:21:22;;;;;;;7.95;7.15;;;;;;;-146.18;100.00;67994.34;10055823;28;20465;-75
2023/04/22 13:26:19;;;;;;;7.93;7.13;;;;;;;-146.18;100.00;67994.34;10065346;28;20525;-75
2023/04/22 13:31:15;;;;;;;8.02;6.93;;;;;;;-146.18;100.00;67994.34;10045990;28;20142;-75
2023/04/22 13:36:12;;;;;;;8.30;6.47;;;;;;;-146.18;100.00;67994.34;10056739;28;20047;-74
2023/04/22 13:41:08;;;;;;;10.07;7.20;;;;;;;-146.18;100.00;67994.34;10061914;28;20057;-74
2023/04/22 13:46:05;;;;;;;7.78;7.15;;;;;;;-146.18;100.00;67994.34;10059041;28;20047;-74
2023/04/22 13:51:01;;;;;;;8.98;6.75;;;;;;;-146.18;100.00;67994.34;10063740;28;20075;-74
2023/04/22 13:55:58;;;;;;;8.75;6.05;;;;;;;-146.18;100.00;67994.34;10062627;28;20053;-75
2023/04/22 14:00:54;;;;;;;11.13;7.68;;;;;;;-146.18;100.00;67994.34;10063143;28;20394;-74
2023/04/22 14:05:51;;;;;;;11.02;7.32;;;;;;;-146.18;100.00;67994.34;10066830;28;20047;-75
2023/04/22 14:10:48;;;;;;;7.35;6.65;;;;;;;-146.18;100.00;67994.34;10057030;28;20062;-74
2023/04/22 14:15:44;;;;;;;7.05;6.32;;;;;;;-146.18;100.00;67994.34;10050511;28;20050;-74
2023/04/22 14:20:41;;;;;;;7.68;7.05;;;;;;;-146.18;100.00;67994.34;10054820;28;20469;-74
2023/04/22 14:25:38;;;;;;;7.43;6.63;;;;;;;-146.18;100.00;67994.34;10049242;28;20048;-74
2023/04/22 14:30:35;;;;;;;7.10;6.35;;;;;;;-146.18;100.00;67994.34;10052280;28;20059;-75
2023/04/22 14:35:33;;;;;;;9.93;7.72;;;;;;;-146.18;100.00;67994.34;10053023;28;20122;-74
2023/04/22 14:40:29;;;;;;;7.30;6.28;;;;;;;-146.18;100.00;67994.34;10065855;28;20478;-74
2023/04/22 14:45:28;;;;;;;6.93;6.22;;;;;;;-146.18;100.00;67994.34;10066779;28;20130;-74
2023/04/22 14:50:24;;;;;;;8.90;6.65;;;;;;;-146.18;100.00;67994.34;10060568;28;20154;-74
2023/04/22 14:55:21;;;;;;;7.72;6.53;;;;;;;-146.18;100.00;67994.34;10060182;28;20061;-74
2023/04/22 15:00:19;;;;;;;7.00;6.40;;;;;;;-146.18;100.00;67994.34;10055795;28;20055;-75
2023/04/22 15:05:16;;;;;;;7.50;6.75;;;;;;;-146.18;100.00;67994.34;10058878;28;20520;-74
2023/04/22 15:10:13;;;;;;;9.07;7.35;;;;;;;-146.18;100.00;67994.34;10057124;28;20086;-74
2023/04/22 15:15:14;;;;;;;7.60;6.90;;;;;;;-146.18;100.00;67994.34;10065444;28;20063;-74
2023/04/22 15:20:12;;;;;;;7.72;7.00;;;;;;;-146.18;100.00;67994.34;10064383;28;20054;-74
2023/04/22 15:25:09;;;;;;;7.18;6.53;;;;;;;-146.18;100.00;67994.34;10042905;28;20070;-74
2023/04/22 15:30:07;;;;;;;7.43;6.80;;;;;;;-146.18;100.00;67994.34;10067436;28;20061;-74
2023/04/22 15:35:05;;;;;;;8.10;6.65;;;;;;;-146.18;100.00;67994.34;10053642;28;20486;-74
2023/04/22 15:40:04;;;;;;;9.23;6.68;;;;;;;-146.18;100.00;67994.34;10071316;28;20086;-73
2023/04/22 15:45:01;;;;;;;9.40;6.40;;;;;;;-146.18;100.00;67994.34;10057170;28;20067;-74
2023/04/22 15:50:05;;;;;;;7.70;6.95;;;;;;;-146.18;100.00;67994.34;10059259;28;20063;-74
2023/04/22 15:55:02;;;;;;;7.57;6.80;;;;;;;-146.18;100.00;67994.34;10056926;28;20143;-73
2023/04/22 16:00:02;;;;;;;11.32;6.72;;;;;;;-146.18;100.00;67994.34;10065592;28;20174;-74
2023/04/22 16:05:07;;;;;;;7.20;6.38;;;;;;;-146.18;100.00;67994.34;10021851;29;20062;-74
2023/04/22 16:10:05;;;;;;;7.28;6.03;;;;;;;-146.18;100.00;67994.34;10025547;28;20554;-74
2023/04/22 16:15:01;;;;;;;7.32;6.40;;;;;;;-146.18;100.00;67994.34;10055583;28;20557;-71
2023/04/22 16:19:58;;;;;;;7.57;6.05;;;;;;;-146.18;100.00;67994.34;10058025;28;20066;-74
2023/04/22 16:24:54;;;;;;;6.95;5.85;;;;;;;-146.18;100.00;67994.34;10067819;28;20047;-74
2023/04/22 16:29:51;;;;;;;8.18;6.22;;;;;;;-146.18;100.00;67994.34;10061219;28;20051;-75
2023/04/22 16:34:47;;;;;;;8.45;6.10;;;;;;;-146.18;100.00;67994.34;10065641;28;20055;-74
2023/04/22 16:39:44;;;;;;;9.63;6.47;;;;;;;-146.18;100.00;67994.34;10070085;28;20063;-75
2023/04/22 16:44:41;;;;;;;8.73;6.50;;;;;;;-146.18;100.00;67994.34;10061708;28;20039;-75
2023/04/22 16:49:37;;;;;;;8.30;6.18;;;;;;;-146.18;100.00;67994.34;10062925;28;20047;-75
2023/04/22 16:54:34;;;;;;;7.13;6.50;;;;;;;-146.18;100.00;67994.34;10062481;28;20039;-74
2023/04/22 16:59:31;;;;;;;6.85;6.10;;;;;;;-146.18;100.00;67994.34;10059839;28;20098;-75
2023/04/22 17:04:27;;;;;;;6.43;5.82;;;;;;;-146.18;100.00;67994.34;10060752;28;20494;-75
2023/04/22 17:09:24;;;;;;;8.63;6.13;;;;;;;-146.18;100.00;67994.34;10064853;28;20059;-74
2023/04/22 17:14:20;;;;;;;6.82;6.13;;;;;;;-146.18;100.00;67994.34;10065086;28;20102;-74
2023/04/22 17:19:17;;;;;;;8.32;6.63;;;;;;;-146.18;100.00;67994.34;10056884;28;20039;-74
2023/04/22 17:24:13;;;;;;;7.30;6.60;;;;;;;-146.18;100.00;67994.34;10059559;28;20039;-74
2023/04/22 17:29:10;;;;;;;6.30;5.68;;;;;;;-146.18;100.00;67994.34;10051865;28;20422;-74
2023/04/22 17:34:06;;;;;;;10.95;6.80;;;;;;;-146.18;100.00;67994.34;10066206;28;20117;-74
2023/04/22 17:39:02;;;;;;;6.32;5.72;;;;;;;-146.18;100.00;67994.34;10059302;28;20048;-74
2023/04/22 17:43:59;;;;;;;9.15;6.05;;;;;;;-146.18;100.00;67994.34;10055043;28;20087;-74
2023/04/22 17:48:56;;;;;;;7.97;5.88;;;;;;;-146.18;100.00;67994.34;10055168;28;20082;-74
2023/04/22 17:53:52;;;;;;;7.70;6.22;;;;;;;-146.18;100.00;67994.34;10054841;28;20043;-74
2023/04/22 17:58:50;;;;;;;6.45;5.85;;;;;;;-146.18;100.00;67994.34;10059451;28;20094;-75
2023/04/22 18:03:46;;;;;;;7.10;6.40;;;;;;;-146.18;100.00;67994.34;10057998;28;20094;-74
2023/04/22 18:08:43;;;;;;;8.38;5.60;;;;;;;-146.18;100.00;67994.34;10053070;28;20432;-74
2023/04/22 18:13:40;;;;;;;7.18;5.75;;;;;;;-146.18;100.00;67994.34;10061711;28;20077;-74
2023/04/22 18:18:37;;;;;;;6.95;6.35;;;;;;;-146.18;100.00;67994.34;10057321;28;20043;-74
2023/04/22 18:23:34;;;;;;;10.45;6.50;;;;;;;-146.18;100.00;67994.34;10055581;28;20051;-74
2023/04/22 18:28:30;;;;;;;10.57;6.65;;;;;;;-146.18;100.00;67994.34;10058128;28;20043;-74
2023/04/22 18:33:30;;;;;;;9.75;6.55;;;;;;;-146.18;100.00;67994.34;10059161;28;20458;-74
2023/04/22 18:38:26;;;;;;;10.20;6.28;;;;;;;-146.18;100.00;67994.34;10052681;28;20082;-74
2023/04/22 18:43:23;;;;;;;19.58;7.93;;;;;;;-146.18;100.00;67994.34;10061015;28;20513;-74
2023/04/22 18:48:21;;;;;;;7.57;6.72;;;;;;;-146.18;100.00;67994.34;10063977;28;20374;-74
2023/04/22 18:53:17;;;;;;;7.85;6.97;;;;;;;-146.18;100.00;67994.34;10067268;28;20059;-74
2023/04/22 18:58:14;;;;;;;8.10;6.32;;;;;;;-146.18;100.00;67994.34;10062234;28;20154;-75
2023/04/22 19:03:10;;;;;;;8.50;6.15;;;;;;;-146.18;100.00;67994.34;10059126;28;20050;-74
2023/04/22 19:08:09;;;;;;;6.78;5.82;;;;;;;-146.18;100.00;67994.34;10059350;28;20063;-74
2023/04/22 19:13:05;;;;;;;8.70;6.90;;;;;;;-146.18;100.00;67994.34;10057133;28;20569;-74
2023/04/22 19:18:11;;;;;;;8.05;7.07;;;;;;;-146.18;100.00;67994.34;10058552;28;20047;-74
2023/04/22 19:23:07;;;;;;;9.18;7.28;;;;;;;-146.18;100.00;67994.34;10063126;28;20074;-75
2023/04/22 19:28:04;;;;;;;7.25;6.55;;;;;;;-146.18;100.00;67994.34;10053065;28;20098;-74
2023/04/22 19:33:00;;;;;;;13.00;6.70;;;;;;;-146.18;100.00;67994.34;10057171;28;20047;-74
2023/04/22 19:37:59;;;;;;;8.57;7.05;;;;;;;-146.18;100.00;67994.34;10064558;28;20067;-74
2023/04/22 19:42:57;;;;;;;10.27;7.78;;;;;;;-146.18;100.00;67994.34;10061547;28;20051;-74
2023/04/22 19:47:55;;;;;;;9.52;6.78;;;;;;;-146.18;100.00;67994.34;10065040;28;20537;-74
2023/04/22 19:52:59;;;;;;;10.90;7.65;;;;;;;-146.18;100.00;67994.34;10064452;28;20103;-74
2023/04/22 19:57:59;;;;;;;8.68;7.57;;;;;;;-146.18;100.00;67994.34;10068431;28;20481;-74
2023/04/22 20:02:55;;;;;;;9.32;7.60;;;;;;;-146.18;100.00;67994.34;10061324;28;20127;-74
2023/04/22 20:07:56;;;;;;;11.15;7.40;;;;;;;-146.18;100.00;67994.34;10067544;28;20544;-74
2023/04/22 20:12:53;;;;;;;7.60;6.90;;;;;;;-146.18;100.00;67994.34;10072973;28;20047;-74
2023/04/22 20:17:50;;;;;;;7.88;7.07;;;;;;;-146.18;100.00;67994.34;10062545;28;20131;-74
2023/04/22 20:22:48;;;;;;;6.85;6.15;;;;;;;-146.18;100.00;67994.34;10059171;28;20055;-74
2023/04/22 20:27:45;;;;;;;7.30;6.60;;;;;;;-146.18;100.00;67994.34;10064915;28;20403;-74
2023/04/22 20:32:41;;;;;;;8.98;6.47;;;;;;;-146.18;100.00;67994.34;10055455;28;20040;-74
2023/04/22 20:37:38;;;;;;;7.43;6.70;;;;;;;-146.18;100.00;67994.34;10055838;28;20718;-74
2023/04/22 20:42:35;;;;;;;7.40;6.70;;;;;;;-146.18;100.00;67994.34;10059269;28;20118;-73
2023/04/22 20:47:32;;;;;;;10.43;6.55;;;;;;;-146.18;100.00;67994.34;10066718;28;20050;-74
2023/04/22 20:52:28;;;;;;;7.35;6.22;;;;;;;-146.18;100.00;67994.34;10061999;28;20074;-74
2023/04/22 20:57:25;;;;;;;6.68;6.07;;;;;;;-146.18;100.00;67994.34;10061118;28;20052;-74
2023/04/22 21:02:22;;;;;;;6.95;6.25;;;;;;;-146.18;100.00;67994.34;10066501;28;20094;-74
2023/04/22 21:07:19;;;;;;;8.13;6.15;;;;;;;-146.18;100.00;67994.34;10061145;28;20050;-74
2023/04/22 21:12:18;;;;;;;6.50;5.97;;;;;;;-146.18;100.00;67994.34;10067478;28;20051;-75
2023/04/22 21:17:31;;;;;;;7.30;6.60;;;;;;;-146.18;100.00;67994.34;10058108;28;20130;-74
2023/04/22 21:22:28;;;;;;;7.00;6.30;;;;;;;-146.18;100.00;67994.34;10064927;28;20505;-74
2023/04/22 21:27:25;;;;;;;8.77;6.47;;;;;;;-146.18;100.00;67994.34;10062205;28;20055;-74
2023/04/22 21:32:22;;;;;;;6.22;5.72;;;;;;;-146.18;100.00;67994.34;10063211;28;20446;-75
2023/04/22 21:37:18;;;;;;;7.45;6.13;;;;;;;-146.18;100.00;67994.34;10050476;28;20060;-74
2023/04/22 21:42:15;;;;;;;6.82;6.22;;;;;;;-146.18;100.00;67994.34;10062303;28;20044;-74
2023/04/22 21:47:11;;;;;;;7.55;6.72;;;;;;;-146.18;100.00;67994.34;10063105;28;20757;-74
2023/04/22 21:52:08;;;;;;;8.30;6.93;;;;;;;-146.18;100.00;67994.34;10058090;28;20070;-74
2023/04/22 21:57:04;;;;;;;7.78;7.00;;;;;;;-146.18;100.00;67994.34;10053240;28;20497;-74
2023/04/22 22:02:01;;;;;;;7.88;7.00;;;;;;;-146.18;100.00;67994.34;10048391;28;20484;-73
2023/04/22 22:06:57;;;;;;;8.25;7.45;;;;;;;-146.18;100.00;67994.34;10060338;28;20565;-73
2023/04/22 22:11:54;;;;;;;7.47;6.70;;;;;;;-146.18;100.00;67994.34;10054527;28;20138;-73